sensor_id;sensor_type;location;lat;lon;timestamp;P1;durP1;ratioP1;P2;durP2;ratioP2
9563;SDS011;4820;50.870;4.702;2024-03-08T00:00:45;15.93;;;12.52;;
9563;SDS011;4820;50.870;4.702;2024-03-08T00:03:12;18.02;;;12.25;;
9563;SDS011;4820;50.870;4.702;2024-03-08T00:05:38;16.67;;;12.45;;
9563;SDS011;4820;50.870;4.702;2024-03-08T00:08:04;14.80;;;12.30;;
9563;SDS011;4820;50.870;4.702;2024-03-08T00:10:34;16.35;;;12.73;;
9563;SDS011;4820;50.870;4.702;2024-03-08T00:12:59;16.65;;;12.13;;
9563;SDS011;4820;50.870;4.702;2024-03-08T00:15:25;15.40;;;11.98;;
9563;SDS011;4820;50.870;4.702;2024-03-08T00:17:51;17.00;;;13.23;;
9563;SDS011;4820;50.870;4.702;2024-03-08T00:20:17;16.60;;;12.80;;
9563;SDS011;4820;50.870;4.702;2024-03-08T00:22:48;18.75;;;13.68;;
9563;SDS011;4820;50.870;4.702;2024-03-08T00:25:14;17.45;;;13.60;;
9563;SDS011;4820;50.870;4.702;2024-03-08T00:27:40;17.08;;;12.48;;
9563;SDS011;4820;50.870;4.702;2024-03-08T00:30:06;16.55;;;13.40;;
9563;SDS011;4820;50.870;4.702;2024-03-08T00:32:33;16.65;;;13.23;;
9563;SDS011;4820;50.870;4.702;2024-03-08T00:34:59;17.77;;;13.27;;
9563;SDS011;4820;50.870;4.702;2024-03-08T00:37:24;18.10;;;13.35;;
9563;SDS011;4820;50.870;4.702;2024-03-08T00:39:50;18.40;;;12.35;;
9563;SDS011;4820;50.870;4.702;2024-03-08T00:42:17;16.58;;;12.90;;
9563;SDS011;4820;50.870;4.702;2024-03-08T00:44:46;17.20;;;13.25;;
9563;SDS011;4820;50.870;4.702;2024-03-08T00:47:13;17.65;;;13.80;;
9563;SDS011;4820;50.870;4.702;2024-03-08T00:49:41;18.25;;;13.43;;
9563;SDS011;4820;50.870;4.702;2024-03-08T00:52:06;18.73;;;13.40;;
9563;SDS011;4820;50.870;4.702;2024-03-08T00:54:33;17.83;;;13.70;;
9563;SDS011;4820;50.870;4.702;2024-03-08T00:56:59;17.35;;;13.43;;
9563;SDS011;4820;50.870;4.702;2024-03-08T00:59:28;16.98;;;14.02;;
9563;SDS011;4820;50.870;4.702;2024-03-08T01:01:55;18.92;;;14.35;;
9563;SDS011;4820;50.870;4.702;2024-03-08T01:04:21;17.20;;;13.57;;
9563;SDS011;4820;50.870;4.702;2024-03-08T01:06:48;16.15;;;13.73;;
9563;SDS011;4820;50.870;4.702;2024-03-08T01:09:14;18.25;;;14.40;;
9563;SDS011;4820;50.870;4.702;2024-03-08T01:11:42;18.73;;;13.93;;
9563;SDS011;4820;50.870;4.702;2024-03-08T01:14:08;19.13;;;13.90;;
9563;SDS011;4820;50.870;4.702;2024-03-08T01:16:34;18.02;;;14.35;;
9563;SDS011;4820;50.870;4.702;2024-03-08T01:19:00;17.80;;;14.15;;
9563;SDS011;4820;50.870;4.702;2024-03-08T01:21:25;16.30;;;13.52;;
9563;SDS011;4820;50.870;4.702;2024-03-08T01:23:51;17.70;;;14.55;;
9563;SDS011;4820;50.870;4.702;2024-03-08T01:26:16;16.58;;;14.25;;
9563;SDS011;4820;50.870;4.702;2024-03-08T01:28:42;18.67;;;14.13;;
9563;SDS011;4820;50.870;4.702;2024-03-08T01:31:09;16.35;;;13.52;;
9563;SDS011;4820;50.870;4.702;2024-03-08T01:33:35;19.13;;;14.63;;
9563;SDS011;4820;50.870;4.702;2024-03-08T01:36:02;16.85;;;14.30;;
9563;SDS011;4820;50.870;4.702;2024-03-08T01:38:28;17.50;;;14.00;;
9563;SDS011;4820;50.870;4.702;2024-03-08T01:40:54;17.55;;;14.60;;
9563;SDS011;4820;50.870;4.702;2024-03-08T01:45:46;18.38;;;14.80;;
9563;SDS011;4820;50.870;4.702;2024-03-08T01:48:13;16.67;;;14.02;;
9563;SDS011;4820;50.870;4.702;2024-03-08T01:50:42;16.58;;;14.63;;
9563;SDS011;4820;50.870;4.702;2024-03-08T01:53:08;18.10;;;15.65;;
9563;SDS011;4820;50.870;4.702;2024-03-08T01:55:37;17.40;;;14.50;;
9563;SDS011;4820;50.870;4.702;2024-03-08T01:58:04;17.33;;;14.55;;
9563;SDS011;4820;50.870;4.702;2024-03-08T02:00:31;16.88;;;14.63;;
9563;SDS011;4820;50.870;4.702;2024-03-08T02:02:59;18.38;;;15.35;;
9563;SDS011;4820;50.870;4.702;2024-03-08T02:05:25;18.10;;;14.80;;
9563;SDS011;4820;50.870;4.702;2024-03-08T02:07:52;17.98;;;14.73;;
9563;SDS011;4820;50.870;4.702;2024-03-08T02:10:18;17.80;;;15.38;;
9563;SDS011;4820;50.870;4.702;2024-03-08T02:12:43;19.05;;;15.63;;
9563;SDS011;4820;50.870;4.702;2024-03-08T02:15:11;19.10;;;15.77;;
9563;SDS011;4820;50.870;4.702;2024-03-08T02:17:37;18.15;;;14.98;;
9563;SDS011;4820;50.870;4.702;2024-03-08T02:20:03;17.52;;;15.55;;
9563;SDS011;4820;50.870;4.702;2024-03-08T02:22:30;17.38;;;15.40;;
9563;SDS011;4820;50.870;4.702;2024-03-08T02:24:59;19.58;;;15.20;;
9563;SDS011;4820;50.870;4.702;2024-03-08T02:27:28;17.80;;;15.77;;
9563;SDS011;4820;50.870;4.702;2024-03-08T02:29:57;17.15;;;15.35;;
9563;SDS011;4820;50.870;4.702;2024-03-08T02:32:25;18.55;;;15.65;;
9563;SDS011;4820;50.870;4.702;2024-03-08T02:34:51;19.20;;;15.43;;
9563;SDS011;4820;50.870;4.702;2024-03-08T02:37:21;20.25;;;16.00;;
9563;SDS011;4820;50.870;4.702;2024-03-08T02:39:47;18.67;;;16.20;;
9563;SDS011;4820;50.870;4.702;2024-03-08T02:42:12;19.98;;;16.00;;
9563;SDS011;4820;50.870;4.702;2024-03-08T02:44:42;21.48;;;15.93;;
9563;SDS011;4820;50.870;4.702;2024-03-08T02:47:09;20.85;;;16.98;;
9563;SDS011;4820;50.870;4.702;2024-03-08T02:49:35;18.85;;;16.58;;
9563;SDS011;4820;50.870;4.702;2024-03-08T02:52:03;19.15;;;16.15;;
9563;SDS011;4820;50.870;4.702;2024-03-08T02:54:30;18.77;;;16.17;;
9563;SDS011;4820;50.870;4.702;2024-03-08T02:56:55;18.65;;;16.15;;
9563;SDS011;4820;50.870;4.702;2024-03-08T02:59:21;18.67;;;16.10;;
9563;SDS011;4820;50.870;4.702;2024-03-08T03:01:48;20.95;;;16.13;;
9563;SDS011;4820;50.870;4.702;2024-03-08T03:04:14;18.90;;;16.50;;
9563;SDS011;4820;50.870;4.702;2024-03-08T03:06:40;18.80;;;16.23;;
9563;SDS011;4820;50.870;4.702;2024-03-08T03:09:06;22.63;;;16.83;;
9563;SDS011;4820;50.870;4.702;2024-03-08T03:11:32;18.77;;;16.77;;
9563;SDS011;4820;50.870;4.702;2024-03-08T03:13:59;21.77;;;16.77;;
9563;SDS011;4820;50.870;4.702;2024-03-08T03:16:25;19.75;;;16.92;;
9563;SDS011;4820;50.870;4.702;2024-03-08T03:18:51;18.55;;;16.55;;
9563;SDS011;4820;50.870;4.702;2024-03-08T03:21:16;18.60;;;16.10;;
9563;SDS011;4820;50.870;4.702;2024-03-08T03:23:42;17.73;;;15.82;;
9563;SDS011;4820;50.870;4.702;2024-03-08T03:26:11;19.77;;;16.52;;
9563;SDS011;4820;50.870;4.702;2024-03-08T03:28:37;19.33;;;16.05;;
9563;SDS011;4820;50.870;4.702;2024-03-08T03:31:06;21.52;;;16.08;;
9563;SDS011;4820;50.870;4.702;2024-03-08T03:33:32;18.23;;;16.17;;
9563;SDS011;4820;50.870;4.702;2024-03-08T03:35:59;19.67;;;15.70;;
9563;SDS011;4820;50.870;4.702;2024-03-08T03:38:27;20.33;;;17.17;;
9563;SDS011;4820;50.870;4.702;2024-03-08T03:40:53;19.80;;;16.90;;
9563;SDS011;4820;50.870;4.702;2024-03-08T03:43:22;19.48;;;16.40;;
9563;SDS011;4820;50.870;4.702;2024-03-08T03:45:48;19.20;;;16.55;;
9563;SDS011;4820;50.870;4.702;2024-03-08T03:48:14;19.63;;;17.42;;
9563;SDS011;4820;50.870;4.702;2024-03-08T03:50:40;19.17;;;16.40;;
9563;SDS011;4820;50.870;4.702;2024-03-08T03:53:06;18.67;;;15.77;;
9563;SDS011;4820;50.870;4.702;2024-03-08T03:55:34;18.88;;;16.77;;
9563;SDS011;4820;50.870;4.702;2024-03-08T03:58:02;19.67;;;16.80;;
9563;SDS011;4820;50.870;4.702;2024-03-08T04:00:28;18.90;;;16.33;;
9563;SDS011;4820;50.870;4.702;2024-03-08T04:02:53;20.95;;;16.35;;
9563;SDS011;4820;50.870;4.702;2024-03-08T04:05:20;20.10;;;17.27;;
9563;SDS011;4820;50.870;4.702;2024-03-08T04:07:46;18.20;;;16.27;;
9563;SDS011;4820;50.870;4.702;2024-03-08T04:10:12;21.70;;;17.05;;
9563;SDS011;4820;50.870;4.702;2024-03-08T04:12:37;21.75;;;16.67;;
9563;SDS011;4820;50.870;4.702;2024-03-08T04:15:04;22.10;;;17.35;;
9563;SDS011;4820;50.870;4.702;2024-03-08T04:17:32;20.02;;;17.27;;
9563;SDS011;4820;50.870;4.702;2024-03-08T04:20:04;22.25;;;17.02;;
9563;SDS011;4820;50.870;4.702;2024-03-08T04:22:38;18.58;;;16.60;;
9563;SDS011;4820;50.870;4.702;2024-03-08T04:25:04;18.55;;;16.27;;
9563;SDS011;4820;50.870;4.702;2024-03-08T04:27:31;19.48;;;16.80;;
9563;SDS011;4820;50.870;4.702;2024-03-08T04:29:58;18.73;;;16.73;;
9563;SDS011;4820;50.870;4.702;2024-03-08T04:32:24;19.25;;;15.98;;
9563;SDS011;4820;50.870;4.702;2024-03-08T04:34:50;19.02;;;16.98;;
9563;SDS011;4820;50.870;4.702;2024-03-08T04:37:15;20.30;;;16.70;;
9563;SDS011;4820;50.870;4.702;2024-03-08T04:39:47;18.35;;;15.45;;
9563;SDS011;4820;50.870;4.702;2024-03-08T04:42:13;19.25;;;15.82;;
9563;SDS011;4820;50.870;4.702;2024-03-08T04:44:40;17.67;;;15.77;;
9563;SDS011;4820;50.870;4.702;2024-03-08T04:47:05;19.00;;;16.40;;
9563;SDS011;4820;50.870;4.702;2024-03-08T04:49:34;23.23;;;16.27;;
9563;SDS011;4820;50.870;4.702;2024-03-08T04:52:01;22.38;;;16.13;;
9563;SDS011;4820;50.870;4.702;2024-03-08T04:54:30;18.77;;;16.17;;
9563;SDS011;4820;50.870;4.702;2024-03-08T04:56:56;18.23;;;16.02;;
9563;SDS011;4820;50.870;4.702;2024-03-08T04:59:22;18.90;;;15.85;;
9563;SDS011;4820;50.870;4.702;2024-03-08T05:01:50;19.33;;;16.05;;
9563;SDS011;4820;50.870;4.702;2024-03-08T05:04:16;19.73;;;15.73;;
9563;SDS011;4820;50.870;4.702;2024-03-08T05:06:43;18.20;;;15.70;;
9563;SDS011;4820;50.870;4.702;2024-03-08T05:09:09;19.98;;;15.55;;
9563;SDS011;4820;50.870;4.702;2024-03-08T05:11:42;18.67;;;16.38;;
9563;SDS011;4820;50.870;4.702;2024-03-08T05:14:09;19.80;;;16.10;;
9563;SDS011;4820;50.870;4.702;2024-03-08T05:16:35;20.77;;;16.67;;
9563;SDS011;4820;50.870;4.702;2024-03-08T05:19:01;20.38;;;16.63;;
9563;SDS011;4820;50.870;4.702;2024-03-08T05:21:27;17.58;;;15.27;;
9563;SDS011;4820;50.870;4.702;2024-03-08T05:23:54;17.42;;;15.18;;
9563;SDS011;4820;50.870;4.702;2024-03-08T05:26:20;20.83;;;16.80;;
9563;SDS011;4820;50.870;4.702;2024-03-08T05:28:47;21.15;;;16.48;;
9563;SDS011;4820;50.870;4.702;2024-03-08T05:31:23;19.75;;;15.80;;
9563;SDS011;4820;50.870;4.702;2024-03-08T05:33:48;18.80;;;16.55;;
9563;SDS011;4820;50.870;4.702;2024-03-08T05:36:14;19.15;;;16.20;;
9563;SDS011;4820;50.870;4.702;2024-03-08T05:38:45;19.10;;;15.98;;
9563;SDS011;4820;50.870;4.702;2024-03-08T05:41:11;18.85;;;16.55;;
9563;SDS011;4820;50.870;4.702;2024-03-08T05:43:40;18.75;;;15.48;;
9563;SDS011;4820;50.870;4.702;2024-03-08T05:46:07;19.40;;;16.15;;
9563;SDS011;4820;50.870;4.702;2024-03-08T05:48:33;29.52;;;24.50;;
9563;SDS011;4820;50.870;4.702;2024-03-08T05:51:02;19.52;;;15.73;;
9563;SDS011;4820;50.870;4.702;2024-03-08T05:53:27;44.92;;;29.58;;
9563;SDS011;4820;50.870;4.702;2024-03-08T05:55:56;23.88;;;16.80;;
9563;SDS011;4820;50.870;4.702;2024-03-08T05:58:23;22.38;;;17.05;;
9563;SDS011;4820;50.870;4.702;2024-03-08T06:00:49;22.45;;;17.27;;
9563;SDS011;4820;50.870;4.702;2024-03-08T06:03:15;20.02;;;15.77;;
9563;SDS011;4820;50.870;4.702;2024-03-08T06:05:41;24.48;;;16.17;;
9563;SDS011;4820;50.870;4.702;2024-03-08T06:08:08;19.20;;;15.70;;
9563;SDS011;4820;50.870;4.702;2024-03-08T06:10:33;22.00;;;15.93;;
9563;SDS011;4820;50.870;4.702;2024-03-08T06:12:59;21.13;;;16.80;;
9563;SDS011;4820;50.870;4.702;2024-03-08T06:15:26;21.50;;;16.88;;
9563;SDS011;4820;50.870;4.702;2024-03-08T06:17:52;23.85;;;18.00;;
9563;SDS011;4820;50.870;4.702;2024-03-08T06:20:18;23.25;;;17.10;;
9563;SDS011;4820;50.870;4.702;2024-03-08T06:22:43;18.55;;;15.20;;
9563;SDS011;4820;50.870;4.702;2024-03-08T06:25:13;20.70;;;16.20;;
9563;SDS011;4820;50.870;4.702;2024-03-08T06:27:41;23.58;;;16.25;;
9563;SDS011;4820;50.870;4.702;2024-03-08T06:30:12;20.80;;;16.65;;
9563;SDS011;4820;50.870;4.702;2024-03-08T06:32:38;20.77;;;15.38;;
9563;SDS011;4820;50.870;4.702;2024-03-08T06:35:04;18.38;;;15.80;;
9563;SDS011;4820;50.870;4.702;2024-03-08T06:37:34;19.67;;;15.38;;
9563;SDS011;4820;50.870;4.702;2024-03-08T06:40:00;21.42;;;17.08;;
9563;SDS011;4820;50.870;4.702;2024-03-08T06:42:27;18.58;;;15.80;;
9563;SDS011;4820;50.870;4.702;2024-03-08T06:44:53;19.67;;;16.45;;
9563;SDS011;4820;50.870;4.702;2024-03-08T06:47:22;20.42;;;16.27;;
9563;SDS011;4820;50.870;4.702;2024-03-08T06:49:50;18.85;;;15.15;;
9563;SDS011;4820;50.870;4.702;2024-03-08T06:52:17;20.70;;;16.23;;
9563;SDS011;4820;50.870;4.702;2024-03-08T06:54:43;45.15;;;31.05;;
9563;SDS011;4820;50.870;4.702;2024-03-08T06:57:09;22.45;;;18.00;;
9563;SDS011;4820;50.870;4.702;2024-03-08T06:59:35;20.25;;;16.33;;
9563;SDS011;4820;50.870;4.702;2024-03-08T07:02:04;21.95;;;16.80;;
9563;SDS011;4820;50.870;4.702;2024-03-08T07:04:30;21.27;;;16.08;;
9563;SDS011;4820;50.870;4.702;2024-03-08T07:06:56;21.52;;;15.82;;
9563;SDS011;4820;50.870;4.702;2024-03-08T07:09:22;20.13;;;15.68;;
9563;SDS011;4820;50.870;4.702;2024-03-08T07:11:49;24.20;;;16.50;;
9563;SDS011;4820;50.870;4.702;2024-03-08T07:14:22;20.60;;;15.98;;
9563;SDS011;4820;50.870;4.702;2024-03-08T07:16:48;22.48;;;15.65;;
9563;SDS011;4820;50.870;4.702;2024-03-08T07:19:14;19.65;;;15.32;;
9563;SDS011;4820;50.870;4.702;2024-03-08T07:21:40;24.42;;;16.20;;
9563;SDS011;4820;50.870;4.702;2024-03-08T07:24:07;21.10;;;15.60;;
9563;SDS011;4820;50.870;4.702;2024-03-08T07:26:42;20.30;;;14.40;;
9563;SDS011;4820;50.870;4.702;2024-03-08T07:29:08;21.58;;;16.08;;
9563;SDS011;4820;50.870;4.702;2024-03-08T07:31:34;21.83;;;16.65;;
9563;SDS011;4820;50.870;4.702;2024-03-08T07:34:10;23.20;;;15.55;;
9563;SDS011;4820;50.870;4.702;2024-03-08T07:36:37;18.92;;;15.18;;
9563;SDS011;4820;50.870;4.702;2024-03-08T07:39:03;21.02;;;15.77;;
9563;SDS011;4820;50.870;4.702;2024-03-08T07:41:36;20.88;;;15.68;;
9563;SDS011;4820;50.870;4.702;2024-03-08T07:44:02;19.55;;;14.95;;
9563;SDS011;4820;50.870;4.702;2024-03-08T07:46:29;21.58;;;15.20;;
9563;SDS011;4820;50.870;4.702;2024-03-08T07:48:55;19.20;;;14.60;;
9563;SDS011;4820;50.870;4.702;2024-03-08T07:51:21;19.52;;;15.38;;
9563;SDS011;4820;50.870;4.702;2024-03-08T07:53:46;20.15;;;15.75;;
9563;SDS011;4820;50.870;4.702;2024-03-08T07:56:12;23.95;;;15.90;;
9563;SDS011;4820;50.870;4.702;2024-03-08T07:58:39;24.58;;;15.13;;
9563;SDS011;4820;50.870;4.702;2024-03-08T08:01:08;20.13;;;15.07;;
9563;SDS011;4820;50.870;4.702;2024-03-08T08:03:41;19.27;;;15.73;;
9563;SDS011;4820;50.870;4.702;2024-03-08T08:06:07;19.23;;;15.63;;
9563;SDS011;4820;50.870;4.702;2024-03-08T08:08:32;18.55;;;14.93;;
9563;SDS011;4820;50.870;4.702;2024-03-08T08:10:58;19.27;;;15.13;;
9563;SDS011;4820;50.870;4.702;2024-03-08T08:13:24;19.30;;;14.13;;
9563;SDS011;4820;50.870;4.702;2024-03-08T08:15:50;20.75;;;15.23;;
9563;SDS011;4820;50.870;4.702;2024-03-08T08:18:15;18.20;;;15.00;;
9563;SDS011;4820;50.870;4.702;2024-03-08T08:20:42;19.58;;;15.18;;
9563;SDS011;4820;50.870;4.702;2024-03-08T08:23:08;16.45;;;14.10;;
9563;SDS011;4820;50.870;4.702;2024-03-08T08:25:36;20.88;;;14.68;;
9563;SDS011;4820;50.870;4.702;2024-03-08T08:28:02;16.48;;;13.82;;
9563;SDS011;4820;50.870;4.702;2024-03-08T08:30:29;20.92;;;15.05;;
9563;SDS011;4820;50.870;4.702;2024-03-08T08:32:54;18.70;;;14.70;;
9563;SDS011;4820;50.870;4.702;2024-03-08T08:35:23;18.23;;;15.10;;
9563;SDS011;4820;50.870;4.702;2024-03-08T08:37:49;22.10;;;14.80;;
9563;SDS011;4820;50.870;4.702;2024-03-08T08:40:14;43.13;;;15.50;;
9563;SDS011;4820;50.870;4.702;2024-03-08T08:42:42;18.65;;;13.77;;
9563;SDS011;4820;50.870;4.702;2024-03-08T08:45:08;19.38;;;14.20;;
9563;SDS011;4820;50.870;4.702;2024-03-08T08:47:37;15.73;;;13.13;;
9563;SDS011;4820;50.870;4.702;2024-03-08T08:50:03;18.77;;;14.25;;
9563;SDS011;4820;50.870;4.702;2024-03-08T08:52:30;18.48;;;13.82;;
9563;SDS011;4820;50.870;4.702;2024-03-08T08:54:57;17.13;;;13.50;;
9563;SDS011;4820;50.870;4.702;2024-03-08T08:57:24;17.00;;;13.73;;
9563;SDS011;4820;50.870;4.702;2024-03-08T08:59:49;16.17;;;13.13;;
9563;SDS011;4820;50.870;4.702;2024-03-08T09:02:15;24.85;;;15.13;;
9563;SDS011;4820;50.870;4.702;2024-03-08T09:04:42;16.33;;;13.45;;
9563;SDS011;4820;50.870;4.702;2024-03-08T09:07:11;18.02;;;14.15;;
9563;SDS011;4820;50.870;4.702;2024-03-08T09:09:38;17.33;;;13.77;;
9563;SDS011;4820;50.870;4.702;2024-03-08T09:12:04;18.17;;;13.30;;
9563;SDS011;4820;50.870;4.702;2024-03-08T09:14:30;15.13;;;12.55;;
9563;SDS011;4820;50.870;4.702;2024-03-08T09:16:56;16.33;;;13.43;;
9563;SDS011;4820;50.870;4.702;2024-03-08T09:19:21;18.20;;;13.95;;
9563;SDS011;4820;50.870;4.702;2024-03-08T09:21:50;17.85;;;13.32;;
9563;SDS011;4820;50.870;4.702;2024-03-08T09:24:16;14.55;;;12.88;;
9563;SDS011;4820;50.870;4.702;2024-03-08T09:26:42;18.40;;;12.85;;
9563;SDS011;4820;50.870;4.702;2024-03-08T09:29:08;15.10;;;12.77;;
9563;SDS011;4820;50.870;4.702;2024-03-08T09:31:36;16.92;;;13.00;;
9563;SDS011;4820;50.870;4.702;2024-03-08T09:34:03;15.35;;;12.98;;
9563;SDS011;4820;50.870;4.702;2024-03-08T09:36:28;17.08;;;12.73;;
9563;SDS011;4820;50.870;4.702;2024-03-08T09:38:55;15.95;;;13.23;;
9563;SDS011;4820;50.870;4.702;2024-03-08T09:41:20;14.60;;;12.43;;
9563;SDS011;4820;50.870;4.702;2024-03-08T09:43:47;14.50;;;12.25;;
9563;SDS011;4820;50.870;4.702;2024-03-08T09:46:14;14.20;;;12.38;;
9563;SDS011;4820;50.870;4.702;2024-03-08T09:48:40;16.42;;;12.70;;
9563;SDS011;4820;50.870;4.702;2024-03-08T09:51:06;18.60;;;13.20;;
9563;SDS011;4820;50.870;4.702;2024-03-08T09:53:33;16.48;;;12.75;;
9563;SDS011;4820;50.870;4.702;2024-03-08T09:55:58;14.80;;;12.55;;
9563;SDS011;4820;50.870;4.702;2024-03-08T09:58:25;20.05;;;13.57;;
9563;SDS011;4820;50.870;4.702;2024-03-08T10:00:51;15.23;;;12.55;;
9563;SDS011;4820;50.870;4.702;2024-03-08T10:03:16;123.80;;;22.02;;
9563;SDS011;4820;50.870;4.702;2024-03-08T10:05:44;17.27;;;13.48;;
9563;SDS011;4820;50.870;4.702;2024-03-08T10:08:11;31.23;;;14.70;;
9563;SDS011;4820;50.870;4.702;2024-03-08T10:10:37;16.13;;;12.30;;
9563;SDS011;4820;50.870;4.702;2024-03-08T10:13:05;16.90;;;12.70;;
9563;SDS011;4820;50.870;4.702;2024-03-08T10:15:31;17.13;;;12.43;;
9563;SDS011;4820;50.870;4.702;2024-03-08T10:18:00;16.08;;;12.13;;
9563;SDS011;4820;50.870;4.702;2024-03-08T10:20:27;16.60;;;12.63;;
9563;SDS011;4820;50.870;4.702;2024-03-08T10:23:02;16.65;;;12.55;;
9563;SDS011;4820;50.870;4.702;2024-03-08T10:25:30;17.50;;;12.75;;
9563;SDS011;4820;50.870;4.702;2024-03-08T10:27:57;14.70;;;12.07;;
9563;SDS011;4820;50.870;4.702;2024-03-08T10:30:23;17.10;;;12.15;;
9563;SDS011;4820;50.870;4.702;2024-03-08T10:32:49;14.88;;;12.20;;
9563;SDS011;4820;50.870;4.702;2024-03-08T10:35:16;15.73;;;12.27;;
9563;SDS011;4820;50.870;4.702;2024-03-08T10:37:44;17.50;;;12.73;;
9563;SDS011;4820;50.870;4.702;2024-03-08T10:40:13;18.45;;;12.73;;
9563;SDS011;4820;50.870;4.702;2024-03-08T10:42:51;13.35;;;11.95;;
9563;SDS011;4820;50.870;4.702;2024-03-08T10:50:45;14.52;;;12.27;;
9563;SDS011;4820;50.870;4.702;2024-03-08T10:53:14;15.85;;;12.07;;
9563;SDS011;4820;50.870;4.702;2024-03-08T10:55:40;14.73;;;12.80;;
9563;SDS011;4820;50.870;4.702;2024-03-08T10:58:07;17.70;;;12.48;;
9563;SDS011;4820;50.870;4.702;2024-03-08T11:00:33;16.13;;;12.70;;
9563;SDS011;4820;50.870;4.702;2024-03-08T11:03:00;15.85;;;12.68;;
9563;SDS011;4820;50.870;4.702;2024-03-08T11:05:36;17.98;;;12.57;;
9563;SDS011;4820;50.870;4.702;2024-03-08T11:08:27;15.25;;;11.85;;
9563;SDS011;4820;50.870;4.702;2024-03-08T11:10:56;13.95;;;12.32;;
9563;SDS011;4820;50.870;4.702;2024-03-08T11:13:35;15.73;;;12.00;;
9563;SDS011;4820;50.870;4.702;2024-03-08T11:16:13;14.45;;;11.60;;
9563;SDS011;4820;50.870;4.702;2024-03-08T11:19:01;13.43;;;12.00;;
9563;SDS011;4820;50.870;4.702;2024-03-08T11:21:35;13.27;;;11.40;;
9563;SDS011;4820;50.870;4.702;2024-03-08T11:24:12;14.45;;;12.50;;
9563;SDS011;4820;50.870;4.702;2024-03-08T11:26:39;14.23;;;12.48;;
9563;SDS011;4820;50.870;4.702;2024-03-08T11:34:37;16.15;;;12.70;;
9563;SDS011;4820;50.870;4.702;2024-03-08T11:37:11;13.80;;;11.93;;
9563;SDS011;4820;50.870;4.702;2024-03-08T11:39:48;18.38;;;12.32;;
9563;SDS011;4820;50.870;4.702;2024-03-08T11:42:18;13.02;;;11.73;;
9563;SDS011;4820;50.870;4.702;2024-03-08T11:44:47;16.27;;;12.15;;
9563;SDS011;4820;50.870;4.702;2024-03-08T11:47:14;15.82;;;12.38;;
9563;SDS011;4820;50.870;4.702;2024-03-08T11:49:41;16.00;;;12.00;;
9563;SDS011;4820;50.870;4.702;2024-03-08T11:52:12;16.58;;;12.32;;
9563;SDS011;4820;50.870;4.702;2024-03-08T11:54:39;13.82;;;12.27;;
9563;SDS011;4820;50.870;4.702;2024-03-08T11:57:06;14.32;;;12.10;;
9563;SDS011;4820;50.870;4.702;2024-03-08T11:59:32;13.30;;;11.90;;
9563;SDS011;4820;50.870;4.702;2024-03-08T12:02:00;13.93;;;12.18;;
9563;SDS011;4820;50.870;4.702;2024-03-08T12:04:28;16.15;;;11.88;;
9563;SDS011;4820;50.870;4.702;2024-03-08T12:06:54;21.52;;;11.05;;
9563;SDS011;4820;50.870;4.702;2024-03-08T12:09:20;13.55;;;11.55;;
9563;SDS011;4820;50.870;4.702;2024-03-08T12:11:50;14.98;;;11.50;;
9563;SDS011;4820;50.870;4.702;2024-03-08T12:14:16;16.02;;;11.77;;
9563;SDS011;4820;50.870;4.702;2024-03-08T12:16:42;13.10;;;11.57;;
9563;SDS011;4820;50.870;4.702;2024-03-08T12:19:09;15.60;;;12.02;;
9563;SDS011;4820;50.870;4.702;2024-03-08T12:21:35;14.23;;;11.77;;
9563;SDS011;4820;50.870;4.702;2024-03-08T12:24:05;14.25;;;11.45;;
9563;SDS011;4820;50.870;4.702;2024-03-08T12:26:36;14.65;;;12.38;;
9563;SDS011;4820;50.870;4.702;2024-03-08T12:29:16;18.23;;;11.82;;
9563;SDS011;4820;50.870;4.702;2024-03-08T12:31:47;14.90;;;12.23;;
9563;SDS011;4820;50.870;4.702;2024-03-08T12:34:16;16.15;;;12.00;;
9563;SDS011;4820;50.870;4.702;2024-03-08T12:36:45;17.42;;;12.25;;
9563;SDS011;4820;50.870;4.702;2024-03-08T12:39:13;18.15;;;12.30;;
9563;SDS011;4820;50.870;4.702;2024-03-08T12:41:43;17.20;;;11.32;;
9563;SDS011;4820;50.870;4.702;2024-03-08T12:44:09;13.82;;;11.15;;
9563;SDS011;4820;50.870;4.702;2024-03-08T12:46:37;15.75;;;12.38;;
9563;SDS011;4820;50.870;4.702;2024-03-08T12:49:09;18.27;;;11.93;;
9563;SDS011;4820;50.870;4.702;2024-03-08T12:51:35;14.50;;;12.10;;
9563;SDS011;4820;50.870;4.702;2024-03-08T12:54:02;17.67;;;11.98;;
9563;SDS011;4820;50.870;4.702;2024-03-08T12:56:28;17.63;;;11.82;;
9563;SDS011;4820;50.870;4.702;2024-03-08T12:58:56;17.08;;;11.43;;
9563;SDS011;4820;50.870;4.702;2024-03-08T13:01:21;13.35;;;11.32;;
9563;SDS011;4820;50.870;4.702;2024-03-08T13:03:47;22.00;;;12.00;;
9563;SDS011;4820;50.870;4.702;2024-03-08T13:06:14;12.85;;;11.38;;
9563;SDS011;4820;50.870;4.702;2024-03-08T13:08:41;13.70;;;11.15;;
9563;SDS011;4820;50.870;4.702;2024-03-08T13:11:11;12.85;;;11.45;;
9563;SDS011;4820;50.870;4.702;2024-03-08T13:13:37;11.43;;;10.18;;
9563;SDS011;4820;50.870;4.702;2024-03-08T13:16:05;15.07;;;11.25;;
9563;SDS011;4820;50.870;4.702;2024-03-08T13:18:33;16.73;;;11.75;;
9563;SDS011;4820;50.870;4.702;2024-03-08T13:21:00;13.10;;;11.35;;
9563;SDS011;4820;50.870;4.702;2024-03-08T13:23:31;17.77;;;12.55;;
9563;SDS011;4820;50.870;4.702;2024-03-08T13:25:58;13.68;;;11.90;;
9563;SDS011;4820;50.870;4.702;2024-03-08T13:28:24;13.10;;;11.70;;
9563;SDS011;4820;50.870;4.702;2024-03-08T13:30:55;14.00;;;11.70;;
9563;SDS011;4820;50.870;4.702;2024-03-08T13:33:23;20.90;;;12.43;;
9563;SDS011;4820;50.870;4.702;2024-03-08T13:35:50;12.70;;;11.35;;
9563;SDS011;4820;50.870;4.702;2024-03-08T13:38:16;18.92;;;12.90;;
9563;SDS011;4820;50.870;4.702;2024-03-08T13:40:45;14.55;;;12.20;;
9563;SDS011;4820;50.870;4.702;2024-03-08T13:43:12;13.30;;;11.57;;
9563;SDS011;4820;50.870;4.702;2024-03-08T13:45:38;54.92;;;13.73;;
9563;SDS011;4820;50.870;4.702;2024-03-08T13:48:04;19.73;;;12.15;;
9563;SDS011;4820;50.870;4.702;2024-03-08T13:50:30;14.13;;;11.25;;
9563;SDS011;4820;50.870;4.702;2024-03-08T13:52:56;16.40;;;11.52;;
9563;SDS011;4820;50.870;4.702;2024-03-08T13:55:23;15.15;;;11.63;;
9563;SDS011;4820;50.870;4.702;2024-03-08T13:57:52;13.57;;;11.25;;
9563;SDS011;4820;50.870;4.702;2024-03-08T14:00:18;13.45;;;11.20;;
9563;SDS011;4820;50.870;4.702;2024-03-08T14:02:47;13.80;;;11.55;;
9563;SDS011;4820;50.870;4.702;2024-03-08T14:05:14;14.10;;;11.35;;
9563;SDS011;4820;50.870;4.702;2024-03-08T14:07:41;16.25;;;11.60;;
9563;SDS011;4820;50.870;4.702;2024-03-08T14:10:07;25.65;;;11.77;;
9563;SDS011;4820;50.870;4.702;2024-03-08T14:12:35;16.00;;;11.43;;
9563;SDS011;4820;50.870;4.702;2024-03-08T14:15:03;13.45;;;11.68;;
9563;SDS011;4820;50.870;4.702;2024-03-08T14:17:31;14.82;;;11.95;;
9563;SDS011;4820;50.870;4.702;2024-03-08T14:19:57;16.42;;;11.13;;
9563;SDS011;4820;50.870;4.702;2024-03-08T14:22:24;20.45;;;11.40;;
9563;SDS011;4820;50.870;4.702;2024-03-08T14:24:49;17.52;;;10.80;;
9563;SDS011;4820;50.870;4.702;2024-03-08T14:27:17;29.45;;;16.30;;
9563;SDS011;4820;50.870;4.702;2024-03-08T14:29:43;25.38;;;16.33;;
9563;SDS011;4820;50.870;4.702;2024-03-08T14:32:10;13.00;;;11.18;;
9563;SDS011;4820;50.870;4.702;2024-03-08T14:34:38;12.40;;;11.10;;
9563;SDS011;4820;50.870;4.702;2024-03-08T14:37:04;12.50;;;11.20;;
9563;SDS011;4820;50.870;4.702;2024-03-08T14:39:33;14.00;;;11.23;;
9563;SDS011;4820;50.870;4.702;2024-03-08T14:42:00;13.18;;;11.27;;
9563;SDS011;4820;50.870;4.702;2024-03-08T14:44:27;14.48;;;11.35;;
9563;SDS011;4820;50.870;4.702;2024-03-08T14:46:57;15.68;;;11.50;;
9563;SDS011;4820;50.870;4.702;2024-03-08T14:49:24;12.65;;;11.35;;
9563;SDS011;4820;50.870;4.702;2024-03-08T14:51:54;13.05;;;11.52;;
9563;SDS011;4820;50.870;4.702;2024-03-08T14:54:20;12.73;;;11.45;;
9563;SDS011;4820;50.870;4.702;2024-03-08T14:56:48;12.10;;;10.45;;
9563;SDS011;4820;50.870;4.702;2024-03-08T14:59:17;12.73;;;11.27;;
9563;SDS011;4820;50.870;4.702;2024-03-08T15:01:44;13.40;;;11.43;;